Time;durP1;ratioP1;P1;durP2;ratioP2;P2;SDS_P1;SDS_P2;PMS_P1;PMS_P2;Temp;Humidity;BMP_temperature;BMP_pressure;BME280_temperature;BME280_humidity;BME280_pressure;Samples;Min_cycle;Max_cycle;Signal;HPM_P1;HPM_P2
2022/02/27 00:02:01;;;;;;;12.10;3.65;;;;;;;0.67;77.76;101468.52;1669951;85;21186;-70
2022/02/27 00:04:34;;;;;;;8.23;3.40;;;;;;;0.62;77.60;101471.91;1630476;85;21112;-70
2022/02/27 00:07:01;;;;;;;11.75;4.33;;;;;;;0.56;78.73;101467.85;1670048;85;21169;-69
2022/02/27 00:09:29;;;;;;;12.13;4.03;;;;;;;0.53;78.96;101472.06;1652382;85;21152;-71
2022/02/27 00:11:57;;;;;;;8.80;3.77;;;;;;;0.48;79.35;101477.14;1651846;85;21628;-70
2022/02/27 00:14:25;;;;;;;10.65;3.40;;;;;;;0.44;79.53;101481.81;1652604;85;21093;-70
2022/02/27 00:16:52;;;;;;;8.68;3.58;;;;;;;0.39;79.44;101484.67;1669895;85;21100;-69
2022/02/27 00:19:21;;;;;;;10.65;4.15;;;;;;;0.34;79.96;101486.27;1669450;85;21888;-69
2022/02/27 00:21:48;;;;;;;15.72;4.53;;;;;;;0.29;79.74;101483.98;1669267;85;21124;-68
2022/02/27 00:24:15;;;;;;;10.30;4.37;;;;;;;0.22;80.07;101484.66;1669616;85;21167;-70
2022/02/27 00:26:42;;;;;;;14.85;4.33;;;;;;;0.17;80.74;101486.70;1669581;85;21162;-68
2022/02/27 00:29:09;;;;;;;13.15;4.72;;;;;;;0.11;80.80;101489.12;1669509;85;21037;-70
2022/02/27 00:31:36;;;;;;;9.33;4.00;;;;;;;0.08;81.71;101482.56;1652366;85;21143;-68
2022/02/27 00:34:03;;;;;;;15.78;4.47;;;;;;;0.00;81.78;101485.38;1670015;85;21075;-70
2022/02/27 00:36:31;;;;;;;10.32;4.17;;;;;;;-0.04;81.99;101488.72;1670212;85;21616;-69
2022/02/27 00:38:59;;;;;;;6.40;3.52;;;;;;;-0.07;83.39;101482.13;1647791;87;21157;-69
2022/02/27 00:41:26;;;;;;;8.33;3.70;;;;;;;-0.13;83.31;101483.28;1599472;87;21626;-69
2022/02/27 00:43:52;;;;;;;9.50;4.22;;;;;;;-0.19;83.87;101490.44;1645114;87;21136;-70
2022/02/27 00:46:19;;;;;;;8.48;3.58;;;;;;;-0.26;84.20;101486.79;1645175;87;21051;-69
2022/02/27 00:48:45;;;;;;;11.65;4.83;;;;;;;-0.30;84.46;101493.12;1644892;87;21618;-70
2022/02/27 00:51:12;;;;;;;9.25;3.92;;;;;;;-0.36;85.17;101491.25;1645036;87;21089;-69
2022/02/27 00:53:39;;;;;;;17.10;4.92;;;;;;;-0.44;85.23;101491.04;1645321;87;21098;-69
2022/02/27 00:56:05;;;;;;;12.58;4.75;;;;;;;-0.51;85.33;101484.32;1646663;87;21129;-68
2022/02/27 00:58:33;;;;;;;10.13;3.70;;;;;;;-0.57;85.80;101484.16;1646338;87;21069;-69
2022/02/27 01:00:59;;;;;;;11.78;4.67;;;;;;;-0.64;85.79;101482.67;1646488;87;21649;-69
2022/02/27 01:03:26;;;;;;;9.65;3.47;;;;;;;-0.70;86.63;101483.77;1646432;87;21097;-69
2022/02/27 01:05:53;;;;;;;12.60;4.00;;;;;;;-0.77;87.14;101483.12;1646623;87;21054;-69
2022/02/27 01:08:21;;;;;;;9.60;4.40;;;;;;;-0.83;88.02;101484.21;1646603;87;21101;-69
2022/02/27 01:10:48;;;;;;;10.85;3.75;;;;;;;-0.89;88.82;101480.16;1646806;87;21096;-69
2022/02/27 01:13:16;;;;;;;10.98;4.75;;;;;;;-0.93;88.71;101487.36;1646695;87;21073;-68
2022/02/27 01:15:43;;;;;;;11.83;4.78;;;;;;;-0.99;89.17;101485.86;1646733;87;21069;-70
2022/02/27 01:18:09;;;;;;;10.10;4.37;;;;;;;-1.04;89.63;101477.08;1646396;87;21137;-69
2022/02/27 01:20:36;;;;;;;15.28;4.22;;;;;;;-1.11;89.81;101482.05;1646374;87;21962;-69
2022/02/27 01:23:03;;;;;;;9.60;3.72;;;;;;;-1.16;90.21;101479.73;1646283;87;21118;-68
2022/02/27 01:25:29;;;;;;;11.60;4.17;;;;;;;-1.19;90.42;101479.65;1646684;87;21601;-69
2022/02/27 01:27:56;;;;;;;11.55;3.95;;;;;;;-1.23;90.46;101481.66;1646298;87;21110;-69
2022/02/27 01:30:22;;;;;;;15.25;4.60;;;;;;;-1.30;90.78;101466.78;1646971;87;21093;-69
2022/02/27 01:32:49;;;;;;;10.75;4.78;;;;;;;-1.33;90.93;101469.28;1646544;87;21133;-68
2022/02/27 01:35:15;;;;;;;11.38;4.03;;;;;;;-1.38;91.77;101468.23;1646826;87;21159;-70
2022/02/27 01:37:42;;;;;;;11.10;4.55;;;;;;;-1.42;91.96;101463.81;1646589;87;21673;-70
2022/02/27 01:40:10;;;;;;;16.87;5.33;;;;;;;-1.51;92.12;101461.38;1659570;85;21079;-69
2022/02/27 01:42:38;;;;;;;16.97;5.53;;;;;;;-1.55;92.39;101468.55;1671454;85;21035;-70
2022/02/27 01:45:07;;;;;;;15.45;5.33;;;;;;;-1.61;92.56;101464.48;1671828;85;22183;-69
2022/02/27 01:47:34;;;;;;;11.15;3.50;;;;;;;-1.65;92.81;101460.45;1671513;85;21096;-70
2022/02/27 01:50:01;;;;;;;12.55;4.03;;;;;;;-1.69;93.19;101464.20;1671449;85;21158;-69
2022/02/27 01:52:28;;;;;;;10.98;4.03;;;;;;;-1.74;93.50;101461.88;1671603;85;21115;-69
2022/02/27 01:54:56;;;;;;;11.60;4.42;;;;;;;-1.79;94.10;101462.56;1670452;85;21053;-69
2022/02/27 01:57:22;;;;;;;10.15;4.22;;;;;;;-1.86;94.01;101460.56;1669829;84;21154;-68
2022/02/27 01:59:50;;;;;;;8.55;3.80;;;;;;;-1.93;94.12;101462.95;1651347;85;21123;-69
2022/02/27 02:02:16;;;;;;;8.53;3.73;;;;;;;-2.04;94.10;101465.57;1670226;85;21100;-69
2022/02/27 02:04:45;;;;;;;13.72;4.03;;;;;;;-2.11;94.25;101463.59;1669907;85;21056;-68
2022/02/27 02:07:12;;;;;;;9.18;3.17;;;;;;;-2.18;95.10;101461.63;1670111;85;21625;-69
2022/02/27 02:09:39;;;;;;;8.20;3.90;;;;;;;-2.23;95.46;101465.33;1652481;85;21121;-70
2022/02/27 02:12:08;;;;;;;12.37;3.80;;;;;;;-2.28;95.79;101469.41;1670281;85;21105;-69
2022/02/27 02:14:37;;;;;;;7.40;3.87;;;;;;;-2.34;96.18;101459.77;1669847;85;21656;-69
2022/02/27 02:17:05;;;;;;;9.73;4.58;;;;;;;-2.38;96.29;101459.59;1670437;85;21603;-69
2022/02/27 02:19:31;;;;;;;13.13;4.12;;;;;;;-2.44;96.48;101466.72;1669868;85;21103;-69
2022/02/27 02:22:04;;;;;;;10.20;4.53;;;;;;;-2.51;96.62;101476.30;1669386;85;21305;-68
2022/02/27 02:24:32;;;;;;;11.25;4.50;;;;;;;-2.55;97.22;101471.88;1669931;85;21123;-69
2022/02/27 02:26:59;;;;;;;11.88;4.47;;;;;;;-2.61;97.70;101469.05;1670172;85;21147;-69
2022/02/27 02:29:26;;;;;;;10.58;4.75;;;;;;;-2.66;98.16;101473.17;1669857;85;21092;-70
2022/02/27 02:31:55;;;;;;;12.45;4.22;;;;;;;-2.71;98.91;101474.66;1670139;85;21100;-69
2022/02/27 02:34:24;;;;;;;9.73;4.58;;;;;;;-2.77;99.58;101477.91;1669935;85;21153;-69
2022/02/27 02:36:51;;;;;;;12.20;4.60;;;;;;;-2.79;100.00;101475.25;1670298;85;21096;-68
2022/02/27 02:39:20;;;;;;;12.65;4.15;;;;;;;-2.81;100.00;101478.59;1670041;85;21579;-69
2022/02/27 02:41:47;;;;;;;11.78;4.53;;;;;;;-2.84;100.00;101481.94;1652298;85;21100;-68
2022/02/27 02:44:16;;;;;;;9.63;4.42;;;;;;;-2.85;100.00;101477.61;1669403;85;22079;-68
2022/02/27 02:46:43;;;;;;;10.48;4.00;;;;;;;-2.87;100.00;101483.12;1669963;85;21160;-70
2022/02/27 02:49:13;;;;;;;11.10;4.12;;;;;;;-2.89;100.00;101485.17;1669689;85;21076;-68
2022/02/27 02:51:42;;;;;;;8.70;4.20;;;;;;;-2.91;100.00;101486.39;1669075;85;21127;-68
2022/02/27 02:54:10;;;;;;;15.68;4.42;;;;;;;-2.92;100.00;101484.64;1670505;85;21079;-69
2022/02/27 02:56:37;;;;;;;12.53;4.90;;;;;;;-2.94;100.00;101483.70;1671609;85;21052;-70
2022/02/27 02:59:04;;;;;;;10.85;3.83;;;;;;;-2.93;100.00;101481.99;1671437;85;21655;-68
2022/02/27 03:01:32;;;;;;;12.15;4.62;;;;;;;-2.94;100.00;101492.72;1671505;85;21639;-69
2022/02/27 03:04:00;;;;;;;9.10;4.10;;;;;;;-2.95;100.00;101484.50;1671391;85;21024;-69
2022/02/27 03:06:27;;;;;;;11.73;4.67;;;;;;;-2.90;100.00;101492.00;1671524;85;21659;-69
2022/02/27 03:08:54;;;;;;;17.73;4.62;;;;;;;-2.89;100.00;101495.48;1671479;85;21083;-69
2022/02/27 03:11:21;;;;;;;14.83;4.30;;;;;;;-2.85;100.00;101498.24;1671454;85;21580;-69
2022/02/27 03:13:50;;;;;;;13.72;4.53;;;;;;;-2.81;100.00;101496.22;1671513;85;21220;-69
2022/02/27 03:16:17;;;;;;;14.98;5.12;;;;;;;-2.75;100.00;101497.77;1671380;85;21192;-69
2022/02/27 03:18:44;;;;;;;22.77;7.10;;;;;;;-2.65;100.00;101498.13;1671282;85;21080;-68
2022/02/27 03:21:11;;;;;;;11.83;5.47;;;;;;;-2.56;100.00;101506.21;1671417;85;21075;-69
2022/02/27 03:23:37;;;;;;;12.40;4.80;;;;;;;-2.50;100.00;101501.30;1671467;85;21146;-69
2022/02/27 03:26:05;;;;;;;11.20;4.58;;;;;;;-2.42;100.00;101496.00;1671439;85;21139;-69
2022/02/27 03:28:31;;;;;;;15.23;6.03;;;;;;;-1.29;100.00;101500.84;1671302;85;21659;-69
2022/02/27 03:30:58;;;;;;;15.65;5.90;;;;;;;-0.95;100.00;101505.82;1671482;85;21124;-68
2022/02/27 03:33:25;;;;;;;12.18;5.78;;;;;;;-0.79;100.00;101494.25;1671125;85;21071;-68
2022/02/27 03:35:51;;;;;;;17.45;5.22;;;;;;;-0.66;100.00;101502.44;1671938;85;21277;-69
2022/02/27 03:38:18;;;;;;;16.93;5.53;;;;;;;-0.56;99.70;101502.72;1671420;85;21067;-69
2022/02/27 03:40:45;;;;;;;11.20;5.22;;;;;;;-0.47;98.59;101504.29;1681658;84;21082;-70
2022/02/27 03:43:11;;;;;;;12.43;4.37;;;;;;;-0.35;97.95;101505.94;1691376;84;21087;-68
2022/02/27 03:45:39;;;;;;;13.48;4.37;;;;;;;-0.02;96.05;101514.24;1691408;84;21158;-69
2022/02/27 03:48:05;;;;;;;15.72;4.78;;;;;;;0.02;95.30;101513.47;1691329;84;21125;-70
2022/02/27 03:50:32;;;;;;;11.50;5.30;;;;;;;0.09;94.58;101518.02;1691371;84;21653;-69
2022/02/27 03:52:58;;;;;;;14.38;5.25;;;;;;;0.12;93.86;101516.80;1691462;84;21066;-69
2022/02/27 03:55:25;;;;;;;17.15;4.62;;;;;;;0.16;93.51;101529.00;1689807;84;21286;-69
2022/02/27 03:57:52;;;;;;;10.78;4.42;;;;;;;0.18;93.04;101515.68;1690073;84;21225;-69
2022/02/27 04:00:19;;;;;;;10.93;4.00;;;;;;;0.23;92.94;101523.58;1689914;84;21150;-69
2022/02/27 04:02:45;;;;;;;8.90;3.90;;;;;;;0.34;92.37;101527.73;1690062;84;21111;-68
2022/02/27 04:05:16;;;;;;;14.80;3.85;;;;;;;0.38;92.06;101525.70;1690113;84;21083;-69
2022/02/27 04:07:43;;;;;;;12.00;4.42;;;;;;;0.51;92.00;101525.62;1690043;84;21090;-69
2022/02/27 04:10:11;;;;;;;11.20;4.00;;;;;;;0.61;91.24;101525.88;1689847;84;21127;-68
2022/02/27 04:12:38;;;;;;;9.55;3.70;;;;;;;0.66;91.86;101519.94;1690360;84;21110;-68
2022/02/27 04:15:07;;;;;;;21.52;4.67;;;;;;;0.79;92.54;101527.20;1690024;84;21591;-68
2022/02/27 04:17:34;;;;;;;8.98;3.47;;;;;;;0.94;92.94;101526.26;1690777;84;21142;-66
2022/02/27 04:20:01;;;;;;;14.33;3.92;;;;;;;0.32;96.07;101532.00;1690544;84;21663;-68
2022/02/27 04:22:30;;;;;;;9.33;4.12;;;;;;;0.40;99.70;101530.50;1690007;84;21040;-69
2022/02/27 04:24:56;;;;;;;11.95;4.08;;;;;;;0.63;97.84;101531.98;1689918;84;21191;-68
2022/02/27 04:27:23;;;;;;;8.93;3.62;;;;;;;0.78;95.95;101538.39;1690373;84;21110;-70
2022/02/27 04:29:50;;;;;;;12.65;4.45;;;;;;;0.92;95.15;101534.45;1689784;84;21130;-69
2022/02/27 04:32:16;;;;;;;7.95;3.42;;;;;;;1.11;94.15;101538.80;1690133;84;21090;-68
2022/02/27 04:34:43;;;;;;;11.90;3.22;;;;;;;1.36;93.18;101539.83;1690204;84;21086;-69
2022/02/27 04:37:09;;;;;;;14.40;4.10;;;;;;;1.69;93.63;101541.42;1689735;84;22473;-70
2022/02/27 04:39:37;;;;;;;9.40;3.25;;;;;;;2.06;90.55;101542.20;1689533;84;21099;-69
2022/02/27 04:42:05;;;;;;;10.53;3.77;;;;;;;2.17;88.03;101538.09;1689869;84;21055;-69
2022/02/27 04:44:32;;;;;;;11.30;3.67;;;;;;;2.46;86.02;101543.87;1689640;84;21575;-68
2022/02/27 04:46:59;;;;;;;13.13;3.90;;;;;;;2.64;84.81;101543.30;1690004;84;21098;-70
2022/02/27 04:49:25;;;;;;;13.58;4.30;;;;;;;2.80;82.07;101540.98;1689725;84;21146;-69
2022/02/27 04:51:52;;;;;;;12.13;4.00;;;;;;;2.80;82.07;101540.98;1689968;84;21114;-70
2022/02/27 04:54:20;;;;;;;9.80;3.90;;;;;;;2.94;81.59;101542.09;1703476;83;21093;-69
2022/02/27 04:56:47;;;;;;;8.50;3.77;;;;;;;3.13;81.17;101542.86;1720452;83;21134;-70
2022/02/27 04:59:14;;;;;;;7.62;3.80;;;;;;;3.39;80.95;101545.42;1719899;83;21239;-69
2022/02/27 05:01:40;;;;;;;8.10;3.67;;;;;;;3.56;78.85;101544.79;1700048;83;21174;-71
2022/02/27 05:04:07;;;;;;;11.53;3.47;;;;;;;3.82;78.47;101546.91;1691122;84;21074;-71
2022/02/27 05:06:35;;;;;;;8.88;3.15;;;;;;;4.04;76.33;101545.87;1691062;84;21102;-70
2022/02/27 05:09:02;;;;;;;7.80;3.80;;;;;;;4.12;75.87;101545.11;1691055;84;21108;-69
2022/02/27 05:11:29;;;;;;;9.28;3.60;;;;;;;4.25;75.26;101549.16;1691403;84;21683;-69
2022/02/27 05:13:55;;;;;;;7.65;3.55;;;;;;;3.67;75.84;101542.34;1691253;84;21200;-71
2022/02/27 05:16:25;;;;;;;6.70;3.45;;;;;;;3.63;76.00;101548.80;1691229;84;21047;-70
2022/02/27 05:18:53;;;;;;;9.00;3.40;;;;;;;3.71;76.17;101549.80;1691426;84;21662;-69
2022/02/27 05:21:21;;;;;;;8.18;3.42;;;;;;;3.83;76.50;101548.64;1691349;84;21075;-70
2022/02/27 05:23:48;;;;;;;10.78;3.75;;;;;;;3.94;75.09;101552.27;1691260;84;21142;-70
2022/02/27 05:26:15;;;;;;;8.75;3.55;;;;;;;4.00;74.73;101556.67;1691585;84;21798;-69
2022/02/27 05:28:42;;;;;;;7.45;3.12;;;;;;;4.12;73.91;101547.72;1691351;84;21733;-71
2022/02/27 05:31:11;;;;;;;9.18;3.83;;;;;;;4.11;73.56;101545.95;1691358;84;21114;-69
2022/02/27 05:33:38;;;;;;;8.95;3.85;;;;;;;4.21;73.67;101541.75;1691347;84;21079;-69
2022/02/27 05:36:06;;;;;;;8.95;3.58;;;;;;;4.24;73.22;101550.90;1691695;84;21146;-70
2022/02/27 05:38:33;;;;;;;9.73;3.75;;;;;;;4.41;72.62;101545.42;1691380;84;21118;-70
2022/02/27 05:40:59;;;;;;;10.20;3.70;;;;;;;4.46;71.02;101543.30;1684235;84;21028;-70
2022/02/27 05:43:26;;;;;;;9.48;3.60;;;;;;;4.40;70.30;101546.73;1671249;85;21142;-70
2022/02/27 05:45:53;;;;;;;9.83;3.55;;;;;;;4.34;70.47;101550.13;1671366;85;21162;-70
2022/02/27 05:48:19;;;;;;;10.18;3.45;;;;;;;4.30;70.63;101550.98;1671249;85;21106;-70
2022/02/27 05:50:46;;;;;;;11.05;3.72;;;;;;;4.38;71.59;101549.31;1671480;85;21079;-70
2022/02/27 05:53:13;;;;;;;11.95;4.05;;;;;;;4.47;70.11;101551.16;1671312;85;21083;-70
2022/02/27 05:55:40;;;;;;;7.47;3.67;;;;;;;4.47;69.70;101550.30;1671445;85;21559;-71
2022/02/27 05:58:07;;;;;;;8.05;3.55;;;;;;;4.43;69.71;101547.20;1671323;85;21133;-70
2022/02/27 06:00:34;;;;;;;9.83;3.92;;;;;;;4.47;69.71;101555.51;1671164;85;21123;-70
2022/02/27 06:03:00;;;;;;;9.35;3.60;;;;;;;4.58;68.68;101553.89;1671777;85;22033;-70
2022/02/27 06:05:29;;;;;;;8.70;3.20;;;;;;;4.59;69.43;101551.72;1671094;85;21587;-74
2022/02/27 06:07:56;;;;;;;9.90;3.83;;;;;;;4.63;69.07;101554.80;1671623;85;21617;-70
2022/02/27 06:10:23;;;;;;;5.42;3.15;;;;;;;4.74;69.25;101555.79;1671110;85;21647;-69
2022/02/27 06:12:50;;;;;;;10.90;3.75;;;;;;;4.87;68.90;101563.73;1671036;85;21106;-70
2022/02/27 06:15:18;;;;;;;7.70;3.17;;;;;;;5.00;69.23;101559.06;1671016;85;21519;-70
2022/02/27 06:17:44;;;;;;;9.93;3.90;;;;;;;5.09;68.48;101560.45;1670929;85;21135;-71
2022/02/27 06:20:12;;;;;;;8.65;3.55;;;;;;;5.16;68.64;101558.33;1670926;85;21639;-70
2022/02/27 06:22:43;;;;;;;9.78;3.55;;;;;;;5.29;67.94;101561.92;1670828;85;21570;-71
2022/02/27 06:25:11;;;;;;;11.90;4.20;;;;;;;5.43;66.59;101560.72;1670547;85;21599;-69
2022/02/27 06:27:42;;;;;;;8.05;3.75;;;;;;;5.48;65.63;101562.92;1671228;85;21830;-69
2022/02/27 06:30:09;;;;;;;10.75;4.40;;;;;;;5.39;65.25;101561.55;1670764;85;21084;-70
2022/02/27 06:32:36;;;;;;;8.18;3.45;;;;;;;5.32;64.99;101567.60;1671488;85;21317;-72
2022/02/27 06:35:05;;;;;;;9.18;3.10;;;;;;;5.31;65.67;101568.45;1670920;85;21101;-71
2022/02/27 06:37:33;;;;;;;8.85;3.60;;;;;;;5.44;66.44;101568.98;1654324;85;21060;-71
2022/02/27 06:40:28;;;;;;;9.18;3.17;;;;;;;5.65;66.88;101565.20;1671486;85;21852;-70
2022/02/27 06:42:45;;;;;;;10.30;3.90;;;;;;;5.78;65.06;101567.91;1652902;85;21583;-70
2022/02/27 06:45:13;;;;;;;9.28;3.87;;;;;;;5.89;64.81;101566.23;1680839;85;21587;-70
2022/02/27 06:47:40;;;;;;;9.73;3.90;;;;;;;5.99;63.75;101558.89;1681277;85;21568;-70
2022/02/27 06:50:07;;;;;;;7.37;3.08;;;;;;;6.14;62.42;101563.73;1681032;85;21124;-71
2022/02/27 06:52:34;;;;;;;11.95;3.80;;;;;;;6.13;63.20;101568.55;1680881;85;21079;-70
2022/02/27 06:55:01;;;;;;;9.28;3.42;;;;;;;6.38;62.88;101570.83;1679741;85;21044;-70
2022/02/27 06:57:28;;;;;;;7.22;3.27;;;;;;;6.71;62.69;101568.71;1679708;85;21126;-69
2022/02/27 07:00:15;;;;;;;14.40;3.40;;;;;;;6.87;61.97;101567.86;1679155;85;21115;-71
2022/02/27 07:06:26;;;;;;;10.28;3.25;;;;;;;7.37;58.53;101570.06;1618993;88;21109;-70
2022/02/27 07:09:21;;;;;;;10.43;3.22;;;;;;;7.68;57.29;101565.63;1628617;88;21113;-70
2022/02/27 07:11:48;;;;;;;8.15;2.80;;;;;;;7.88;54.57;101570.84;1645741;84;21080;-71
2022/02/27 07:14:14;;;;;;;8.00;3.00;;;;;;;8.02;55.01;101570.80;1702066;84;21059;-70
2022/02/27 07:16:43;;;;;;;7.12;3.40;;;;;;;8.52;53.59;101571.50;1699322;84;21067;-70
2022/02/27 07:19:09;;;;;;;5.45;2.83;;;;;;;8.87;52.19;101571.71;1674004;85;21102;-69
2022/02/27 07:21:36;;;;;;;5.67;2.87;;;;;;;9.24;51.48;101570.53;1674072;85;21263;-70
2022/02/27 07:24:03;;;;;;;9.63;3.75;;;;;;;9.73;50.28;101571.84;1674048;85;21508;-71
2022/02/27 07:26:30;;;;;;;10.65;3.17;;;;;;;10.12;49.40;101568.31;1674359;85;21035;-68
2022/02/27 07:28:56;;;;;;;5.37;2.62;;;;;;;10.35;46.67;101567.19;1674274;85;21058;-70
2022/02/27 07:31:23;;;;;;;8.85;2.83;;;;;;;10.46;46.06;101567.92;1674305;85;21160;-69
2022/02/27 07:33:50;;;;;;;10.13;3.72;;;;;;;10.43;45.20;101566.66;1674387;85;21067;-71
2022/02/27 07:36:18;;;;;;;9.08;3.00;;;;;;;10.23;45.67;101561.16;1673888;85;21118;-71
2022/02/27 07:38:50;;;;;;;7.03;2.85;;;;;;;10.27;44.24;101568.13;1674079;85;21042;-71
2022/02/27 07:41:15;;;;;;;5.87;2.80;;;;;;;10.28;44.52;101564.66;1673875;85;21122;-70
2022/02/27 07:43:43;;;;;;;9.03;3.02;;;;;;;10.48;44.94;101563.50;1673866;85;21116;-71
2022/02/27 07:46:13;;;;;;;11.60;3.70;;;;;;;10.99;44.21;101560.98;1673684;85;21075;-70
2022/02/27 07:48:39;;;;;;;6.92;2.60;;;;;;;11.34;43.33;101563.48;1674184;85;21253;-70
2022/02/27 07:51:06;;;;;;;6.10;2.47;;;;;;;11.73;42.58;101561.91;1674080;85;21035;-70
2022/02/27 07:53:34;;;;;;;3.27;2.20;;;;;;;12.38;41.67;101554.89;1670062;85;21137;-70
2022/02/27 07:56:01;;;;;;;5.95;2.62;;;;;;;13.14;38.80;101552.69;1646336;86;21156;-70
2022/02/27 08:00:00;;;;;;;9.98;2.95;;;;;;;14.21;34.42;101550.23;1881620;75;22452;-71
2022/02/27 08:02:31;;;;;;;11.20;4.42;;;;;;;14.20;34.09;101552.95;1858853;77;21063;-70
2022/02/27 08:04:59;;;;;;;19.25;5.40;;;;;;;14.18;33.69;101549.47;1858552;77;21178;-71
2022/02/27 08:07:25;;;;;;;25.77;6.85;;;;;;;14.23;32.73;101551.52;1858319;77;20976;-69
2022/02/27 08:09:53;;;;;;;5.62;2.30;;;;;;;14.02;32.77;101549.91;1858365;77;21758;-70
2022/02/27 08:12:22;;;;;;;3.72;1.67;;;;;;;14.04;32.12;101550.73;1858608;77;21602;-69
2022/02/27 08:14:49;;;;;;;6.33;2.77;;;;;;;13.78;32.06;101557.20;1858339;77;20920;-72
2022/02/27 08:17:18;;;;;;;10.00;3.87;;;;;;;13.60;33.25;101552.84;1858066;77;21118;-72
2022/02/27 08:19:47;;;;;;;5.40;2.80;;;;;;;13.60;33.33;101548.87;1856347;77;21081;-70
2022/02/27 08:22:17;;;;;;;5.55;2.60;;;;;;;13.73;33.42;101552.04;1856584;77;21062;-69
2022/02/27 08:24:44;;;;;;;4.58;2.20;;;;;;;13.76;33.19;101551.11;1857577;77;21042;-72
2022/02/27 08:27:11;;;;;;;3.85;1.87;;;;;;;13.68;33.42;101551.77;1856717;77;21311;-70
2022/02/27 08:29:43;;;;;;;7.60;1.95;;;;;;;13.70;31.69;101552.13;1856813;77;21160;-70
2022/02/27 08:32:09;;;;;;;;;;;;;;;13.53;32.00;101545.98;1859553;77;21067;-72
2022/02/27 08:34:35;;;;;;;2.15;1.10;;;;;;;13.47;31.18;101546.13;1856893;77;20184;-71
2022/02/27 08:37:03;;;;;;;4.53;1.10;;;;;;;13.39;30.00;101550.78;1856517;77;21010;-69
2022/02/27 08:39:30;;;;;;;3.95;1.27;;;;;;;13.15;30.28;101553.09;1856851;77;21347;-70
2022/02/27 08:41:56;;;;;;;3.20;1.35;;;;;;;12.85;31.26;101552.06;1856666;77;21100;-69
2022/02/27 08:44:23;;;;;;;4.70;1.50;;;;;;;12.52;30.66;101555.05;1856605;77;21482;-70
2022/02/27 08:46:50;;;;;;;5.47;2.00;;;;;;;11.87;31.11;101556.79;1856782;77;21018;-69
2022/02/27 08:49:17;;;;;;;3.25;1.32;;;;;;;11.24;32.60;101556.63;1856534;77;21039;-69
2022/02/27 08:51:45;;;;;;;6.55;2.67;;;;;;;10.93;33.74;101550.56;1856379;77;21059;-69
2022/02/27 08:54:13;;;;;;;3.22;1.57;;;;;;;10.99;33.80;101542.98;1855984;77;21569;-72
2022/02/27 08:56:40;;;;;;;3.60;1.45;;;;;;;11.08;35.15;101554.24;1856409;77;21026;-70
2022/02/27 08:59:06;;;;;;;7.53;2.77;;;;;;;11.42;34.87;101547.54;1856700;77;21014;-70
2022/02/27 09:01:33;;;;;;;3.62;1.30;;;;;;;11.77;32.95;101549.51;1856478;77;21518;-70
2022/02/27 09:04:00;;;;;;;3.12;1.40;;;;;;;11.76;31.67;101546.47;1857076;77;21085;-70
2022/02/27 09:06:27;;;;;;;3.58;1.10;;;;;;;11.67;32.16;101546.64;1856525;77;21112;-70
2022/02/27 09:08:54;;;;;;;3.42;1.30;;;;;;;11.68;33.53;101541.31;1856809;77;21495;-69
2022/02/27 09:11:20;;;;;;;2.83;1.10;;;;;;;12.16;32.90;101543.05;1856073;77;21011;-70
2022/02/27 09:13:47;;;;;;;3.67;1.30;;;;;;;12.87;31.00;101541.46;1856033;77;21089;-70
2022/02/27 09:16:14;;;;;;;3.70;0.98;;;;;;;13.48;30.52;101532.02;1855933;77;20995;-70
2022/02/27 09:18:41;;;;;;;1.82;0.90;;;;;;;13.60;27.08;101529.48;1855926;77;21515;-71
2022/02/27 09:21:08;;;;;;;2.77;1.07;;;;;;;13.27;27.70;101529.88;1855824;77;21062;-71
2022/02/27 09:23:35;;;;;;;4.45;1.20;;;;;;;12.93;29.57;101530.72;1855932;77;21046;-70
2022/02/27 09:26:04;;;;;;;1.67;0.75;;;;;;;12.84;28.67;101528.30;1856104;77;21031;-70
2022/02/27 09:28:31;;;;;;;3.00;0.90;;;;;;;12.75;29.45;101535.55;1855961;77;21038;-70
2022/02/27 09:30:59;;;;;;;1.92;0.90;;;;;;;12.82;29.07;101530.13;1855825;77;21127;-71
2022/02/27 09:33:26;;;;;;;2.10;0.88;;;;;;;12.73;27.96;101529.44;1855922;77;21026;-71
2022/02/27 09:35:55;;;;;;;1.35;0.80;;;;;;;12.84;27.91;101525.66;1855800;77;21085;-70
2022/02/27 09:38:22;;;;;;;1.92;0.70;;;;;;;13.16;28.84;101523.09;1855972;77;21065;-70
2022/02/27 09:40:52;;;;;;;25.60;6.33;;;;;;;13.48;28.10;101524.08;1855928;77;21089;-71
2022/02/27 09:43:19;;;;;;;45.90;9.47;;;;;;;13.54;25.80;101514.63;1856201;77;21136;-71
2022/02/27 09:45:47;;;;;;;17.73;3.42;;;;;;;12.91;27.06;101525.95;1855820;77;21030;-71
2022/02/27 09:48:16;;;;;;;3.77;1.40;;;;;;;12.36;27.90;101523.67;1855775;77;21000;-70
2022/02/27 09:50:42;;;;;;;22.93;5.80;;;;;;;12.06;28.64;101525.67;1855699;77;21539;-70
2022/02/27 09:53:09;;;;;;;3.70;1.32;;;;;;;11.71;28.46;101527.19;1855986;77;21018;-71
2022/02/27 09:55:37;;;;;;;8.30;3.05;;;;;;;11.31;29.70;101523.98;1822857;77;21124;-70
2022/02/27 09:58:04;;;;;;;2.90;1.55;;;;;;;11.13;29.68;101521.20;1822385;78;21053;-70
2022/02/27 10:00:31;;;;;;;9.80;1.52;;;;;;;10.94;29.95;101527.24;1825316;78;21191;-70
2022/02/27 10:03:07;;;;;;;7.70;1.20;;;;;;;10.89;32.96;101522.50;1825561;78;21047;-70
2022/02/27 10:05:44;;;;;;;3.50;1.07;;;;;;;11.08;33.22;101518.66;1825346;78;21030;-71
2022/02/27 10:08:24;;;;;;;3.95;1.40;;;;;;;11.20;29.95;101521.98;1800438;78;21135;-72
2022/02/27 10:10:57;;;;;;;1.95;0.85;;;;;;;11.00;31.53;101517.92;1791762;78;21085;-69
2022/02/27 10:13:35;;;;;;;2.08;0.85;;;;;;;10.93;32.67;101516.30;1825464;78;21593;-69
2022/02/27 10:16:14;;;;;;;2.60;0.90;;;;;;;11.04;31.57;101516.09;1821461;78;21057;-70
2022/02/27 10:18:47;;;;;;;3.00;1.05;;;;;;;11.27;30.62;101508.68;1825635;78;21039;-70
2022/02/27 10:21:28;;;;;;;8.85;3.02;;;;;;;11.54;31.17;101509.91;1825290;78;21121;-70
2022/02/27 10:24:08;;;;;;;6.35;1.42;;;;;;;11.49;29.53;101514.41;1825818;78;21093;-71
2022/02/27 10:26:39;;;;;;;2.33;1.00;;;;;;;11.04;29.60;101506.45;1825494;78;21003;-70
2022/02/27 10:29:10;;;;;;;8.38;2.12;;;;;;;10.99;30.92;101503.45;1826052;78;21050;-69
2022/02/27 10:31:42;;;;;;;2.02;0.90;;;;;;;11.12;30.75;101501.89;1826109;78;21054;-71
2022/02/27 10:34:22;;;;;;;2.83;1.07;;;;;;;11.22;31.20;101507.86;1825597;78;21117;-71
2022/02/27 10:37:12;;;;;;;2.92;1.30;;;;;;;11.25;29.97;101499.03;1825469;78;21525;-70
2022/02/27 10:39:48;;;;;;;3.50;1.52;;;;;;;11.06;30.96;101505.94;1825470;78;21062;-70
2022/02/27 10:42:30;;;;;;;2.90;0.90;;;;;;;10.90;30.81;101511.05;1825537;78;21566;-71
2022/02/27 10:45:00;;;;;;;3.65;1.10;;;;;;;10.93;32.09;101505.75;1825861;78;21088;-71
2022/02/27 10:47:30;;;;;;;3.33;1.00;;;;;;;11.02;32.52;101495.48;1825467;78;21069;-70
2022/02/27 10:50:00;;;;;;;4.92;1.87;;;;;;;11.29;30.02;101500.72;1825264;78;21755;-71
2022/02/27 10:52:30;;;;;;;5.15;1.62;;;;;;;11.05;29.30;101492.35;1825177;78;21553;-70
2022/02/27 10:55:04;;;;;;;3.22;1.45;;;;;;;10.91;31.50;101489.09;1859770;76;21101;-70
2022/02/27 10:57:46;;;;;;;4.15;1.50;;;;;;;11.09;30.71;101490.09;1874513;76;21005;-71
2022/02/27 11:00:17;;;;;;;3.22;1.20;;;;;;;11.18;30.38;101490.38;1875381;76;21093;-72
2022/02/27 11:02:55;;;;;;;2.30;1.20;;;;;;;11.07;30.41;101488.38;1876347;76;21009;-73
2022/02/27 11:05:26;;;;;;;4.47;1.15;;;;;;;10.83;30.19;101492.28;1788453;80;21030;-69
2022/02/27 11:07:58;;;;;;;3.55;1.12;;;;;;;10.71;31.67;101490.27;1821251;78;21076;-72
2022/02/27 11:10:29;;;;;;;2.00;0.90;;;;;;;10.78;31.03;101487.09;1788550;80;21026;-72
2022/02/27 11:12:59;;;;;;;2.42;1.00;;;;;;;10.67;30.91;101485.97;1821163;78;21556;-70
2022/02/27 11:15:26;;;;;;;3.02;1.55;;;;;;;10.39;30.94;101484.63;1788431;80;22039;-72
2022/02/27 11:17:53;;;;;;;3.12;1.12;;;;;;;10.00;31.57;101484.25;1820915;78;22054;-71
2022/02/27 11:20:22;;;;;;;3.95;1.20;;;;;;;9.79;31.65;101487.57;1788474;80;21641;-71
2022/02/27 11:22:51;;;;;;;2.92;1.10;;;;;;;9.68;32.71;101480.25;1821160;78;21001;-69
2022/02/27 11:25:18;;;;;;;2.22;1.25;;;;;;;9.66;34.01;101484.65;1788211;80;21064;-70
2022/02/27 11:28:04;;;;;;;7.22;1.30;;;;;;;9.90;34.43;101485.27;1820849;78;21549;-71
2022/02/27 11:30:33;;;;;;;3.05;1.15;;;;;;;10.25;34.89;101486.11;1788406;80;21056;-71
2022/02/27 11:33:05;;;;;;;2.83;0.90;;;;;;;10.54;34.60;101481.77;1821053;78;21185;-70
2022/02/27 11:35:51;;;;;;;3.60;1.30;;;;;;;10.74;34.66;101485.84;1788374;79;21502;-71